Terminal Aerodrome Forecast
Issued by NWS Duluth, MN

Home | Current Version | Previous Version | Text Only | Print | Product List | Glossary On
Versions: 1 2 3 4 5 6 7 8 9 10 11 12 13 14 15
000
FTUS43 KDLH 250500 AAA
TAFDLH
TAF AMD
KDLH 250552Z 2506/2606 09006KT 4SM -RA BKN005 OVC025
      TEMPO 2506/2509 2SM -RA BR SCT005 OVC025
     FM250900 08009KT 5SM -RA BR SCT004 OVC009
     FM251400 07011KT 2SM -RA BR OVC006
     FM260100 36006KT 2SM -RA BR OVC004=

USA.gov is the U.S. government's official web portal to all federal, state and local government web resources and services.